sensor_id;sensor_type;location;lat;lon;timestamp;P1;durP1;ratioP1;P2;durP2;ratioP2
67063;SDS011;58476;48.072;11.970;2023-03-01T00:01:46;7.30;;;4.43;;
67063;SDS011;58476;48.072;11.970;2023-03-01T00:04:12;7.47;;;5.10;;
67063;SDS011;58476;48.072;11.970;2023-03-01T00:06:37;6.22;;;4.78;;
67063;SDS011;58476;48.072;11.970;2023-03-01T00:09:03;6.72;;;4.93;;
67063;SDS011;58476;48.072;11.970;2023-03-01T00:11:30;6.68;;;4.60;;
67063;SDS011;58476;48.072;11.970;2023-03-01T00:13:57;6.63;;;4.80;;
67063;SDS011;58476;48.072;11.970;2023-03-01T00:16:25;8.15;;;5.18;;
67063;SDS011;58476;48.072;11.970;2023-03-01T00:18:54;7.97;;;4.95;;
67063;SDS011;58476;48.072;11.970;2023-03-01T00:21:20;7.43;;;4.90;;
67063;SDS011;58476;48.072;11.970;2023-03-01T00:23:46;6.90;;;5.30;;
67063;SDS011;58476;48.072;11.970;2023-03-01T00:27:51;6.88;;;4.85;;
67063;SDS011;58476;48.072;11.970;2023-03-01T00:30:16;7.00;;;5.10;;
67063;SDS011;58476;48.072;11.970;2023-03-01T00:32:41;9.25;;;5.20;;
67063;SDS011;58476;48.072;11.970;2023-03-01T00:35:07;7.07;;;4.78;;
67063;SDS011;58476;48.072;11.970;2023-03-01T00:37:32;7.03;;;4.90;;
67063;SDS011;58476;48.072;11.970;2023-03-01T00:39:58;6.15;;;4.40;;
67063;SDS011;58476;48.072;11.970;2023-03-01T00:42:23;7.07;;;4.72;;
67063;SDS011;58476;48.072;11.970;2023-03-01T00:44:49;6.90;;;4.82;;
67063;SDS011;58476;48.072;11.970;2023-03-01T00:47:14;6.68;;;4.88;;
67063;SDS011;58476;48.072;11.970;2023-03-01T00:49:39;7.70;;;5.35;;
67063;SDS011;58476;48.072;11.970;2023-03-01T00:52:05;6.45;;;4.93;;
67063;SDS011;58476;48.072;11.970;2023-03-01T00:54:31;7.00;;;4.78;;
67063;SDS011;58476;48.072;11.970;2023-03-01T00:56:56;8.98;;;4.72;;
67063;SDS011;58476;48.072;11.970;2023-03-01T00:59:21;8.10;;;5.10;;
67063;SDS011;58476;48.072;11.970;2023-03-01T01:01:47;6.72;;;4.53;;
67063;SDS011;58476;48.072;11.970;2023-03-01T01:04:12;7.32;;;4.95;;
67063;SDS011;58476;48.072;11.970;2023-03-01T01:06:43;7.57;;;4.72;;
67063;SDS011;58476;48.072;11.970;2023-03-01T01:09:12;8.48;;;5.00;;
67063;SDS011;58476;48.072;11.970;2023-03-01T01:11:40;7.25;;;4.85;;
67063;SDS011;58476;48.072;11.970;2023-03-01T01:14:05;6.63;;;4.65;;
67063;SDS011;58476;48.072;11.970;2023-03-01T01:16:30;6.28;;;5.10;;
67063;SDS011;58476;48.072;11.970;2023-03-01T01:18:56;6.97;;;4.78;;
67063;SDS011;58476;48.072;11.970;2023-03-01T01:21:23;7.72;;;4.82;;
67063;SDS011;58476;48.072;11.970;2023-03-01T01:23:49;7.28;;;4.78;;
67063;SDS011;58476;48.072;11.970;2023-03-01T01:26:16;7.00;;;4.90;;
67063;SDS011;58476;48.072;11.970;2023-03-01T01:28:43;7.57;;;4.88;;
67063;SDS011;58476;48.072;11.970;2023-03-01T01:31:09;6.78;;;5.05;;
67063;SDS011;58476;48.072;11.970;2023-03-01T01:33:35;6.32;;;4.68;;
67063;SDS011;58476;48.072;11.970;2023-03-01T01:36:00;6.85;;;4.80;;
67063;SDS011;58476;48.072;11.970;2023-03-01T01:38:26;6.18;;;4.72;;
67063;SDS011;58476;48.072;11.970;2023-03-01T01:40:52;6.55;;;5.13;;
67063;SDS011;58476;48.072;11.970;2023-03-01T01:43:19;7.20;;;5.00;;
67063;SDS011;58476;48.072;11.970;2023-03-01T01:45:49;7.22;;;4.95;;
67063;SDS011;58476;48.072;11.970;2023-03-01T01:48:26;7.70;;;5.00;;
67063;SDS011;58476;48.072;11.970;2023-03-01T01:50:59;6.47;;;4.78;;
67063;SDS011;58476;48.072;11.970;2023-03-01T01:53:26;7.32;;;5.00;;
67063;SDS011;58476;48.072;11.970;2023-03-01T01:55:53;6.97;;;4.72;;
67063;SDS011;58476;48.072;11.970;2023-03-01T01:58:21;7.18;;;4.85;;
67063;SDS011;58476;48.072;11.970;2023-03-01T02:00:47;7.70;;;5.18;;
67063;SDS011;58476;48.072;11.970;2023-03-01T02:03:14;7.35;;;5.20;;
67063;SDS011;58476;48.072;11.970;2023-03-01T02:08:15;7.72;;;5.28;;
67063;SDS011;58476;48.072;11.970;2023-03-01T02:10:43;6.70;;;4.70;;
67063;SDS011;58476;48.072;11.970;2023-03-01T02:13:10;6.68;;;4.78;;
67063;SDS011;58476;48.072;11.970;2023-03-01T02:15:36;6.95;;;4.88;;
67063;SDS011;58476;48.072;11.970;2023-03-01T02:18:04;7.55;;;4.90;;
67063;SDS011;58476;48.072;11.970;2023-03-01T02:23:24;7.05;;;5.15;;
67063;SDS011;58476;48.072;11.970;2023-03-01T02:31:00;6.45;;;4.68;;
67063;SDS011;58476;48.072;11.970;2023-03-01T02:33:28;6.78;;;4.80;;
67063;SDS011;58476;48.072;11.970;2023-03-01T02:35:55;6.70;;;4.43;;
67063;SDS011;58476;48.072;11.970;2023-03-01T02:38:21;6.72;;;4.72;;
67063;SDS011;58476;48.072;11.970;2023-03-01T02:40:48;6.38;;;4.70;;
67063;SDS011;58476;48.072;11.970;2023-03-01T02:43:15;6.80;;;4.85;;
67063;SDS011;58476;48.072;11.970;2023-03-01T02:45:52;7.10;;;4.78;;
67063;SDS011;58476;48.072;11.970;2023-03-01T02:48:18;6.47;;;4.85;;
67063;SDS011;58476;48.072;11.970;2023-03-01T02:51:48;6.35;;;4.75;;
67063;SDS011;58476;48.072;11.970;2023-03-01T02:54:09;6.78;;;4.95;;
67063;SDS011;58476;48.072;11.970;2023-03-01T02:56:37;6.07;;;4.85;;
67063;SDS011;58476;48.072;11.970;2023-03-01T02:59:02;6.75;;;4.90;;
67063;SDS011;58476;48.072;11.970;2023-03-01T03:01:29;6.47;;;4.85;;
67063;SDS011;58476;48.072;11.970;2023-03-01T03:03:54;8.52;;;5.00;;
67063;SDS011;58476;48.072;11.970;2023-03-01T03:06:20;7.45;;;5.00;;
67063;SDS011;58476;48.072;11.970;2023-03-01T03:08:45;6.25;;;4.85;;
67063;SDS011;58476;48.072;11.970;2023-03-01T03:11:10;7.20;;;4.85;;
67063;SDS011;58476;48.072;11.970;2023-03-01T03:13:36;6.68;;;4.78;;
67063;SDS011;58476;48.072;11.970;2023-03-01T03:16:02;7.50;;;5.05;;
67063;SDS011;58476;48.072;11.970;2023-03-01T03:18:27;7.35;;;5.00;;
67063;SDS011;58476;48.072;11.970;2023-03-01T03:20:52;7.60;;;5.03;;
67063;SDS011;58476;48.072;11.970;2023-03-01T03:23:19;6.30;;;4.93;;
67063;SDS011;58476;48.072;11.970;2023-03-01T03:25:47;6.60;;;4.75;;
67063;SDS011;58476;48.072;11.970;2023-03-01T03:28:14;6.93;;;5.05;;
67063;SDS011;58476;48.072;11.970;2023-03-01T03:30:39;6.40;;;4.55;;
67063;SDS011;58476;48.072;11.970;2023-03-01T03:33:06;7.15;;;5.18;;
67063;SDS011;58476;48.072;11.970;2023-03-01T03:35:33;7.88;;;5.03;;
67063;SDS011;58476;48.072;11.970;2023-03-01T03:40:36;6.15;;;4.68;;
67063;SDS011;58476;48.072;11.970;2023-03-01T03:43:03;6.20;;;4.82;;
67063;SDS011;58476;48.072;11.970;2023-03-01T03:45:29;7.63;;;5.70;;
67063;SDS011;58476;48.072;11.970;2023-03-01T03:47:55;5.82;;;4.70;;
67063;SDS011;58476;48.072;11.970;2023-03-01T03:50:20;6.65;;;5.22;;
67063;SDS011;58476;48.072;11.970;2023-03-01T03:52:45;7.55;;;5.13;;
67063;SDS011;58476;48.072;11.970;2023-03-01T03:55:11;9.20;;;5.30;;
67063;SDS011;58476;48.072;11.970;2023-03-01T03:57:38;6.65;;;4.90;;
67063;SDS011;58476;48.072;11.970;2023-03-01T04:00:04;7.43;;;4.80;;
67063;SDS011;58476;48.072;11.970;2023-03-01T04:02:37;7.50;;;5.00;;
67063;SDS011;58476;48.072;11.970;2023-03-01T04:05:03;7.53;;;5.03;;
67063;SDS011;58476;48.072;11.970;2023-03-01T04:07:28;6.30;;;5.05;;
67063;SDS011;58476;48.072;11.970;2023-03-01T04:09:54;6.18;;;5.07;;
67063;SDS011;58476;48.072;11.970;2023-03-01T04:12:19;7.15;;;4.90;;
67063;SDS011;58476;48.072;11.970;2023-03-01T04:14:44;7.65;;;5.25;;
67063;SDS011;58476;48.072;11.970;2023-03-01T04:17:10;7.65;;;5.15;;
67063;SDS011;58476;48.072;11.970;2023-03-01T04:19:35;7.47;;;5.05;;
67063;SDS011;58476;48.072;11.970;2023-03-01T04:22:00;6.25;;;4.60;;
67063;SDS011;58476;48.072;11.970;2023-03-01T04:24:26;7.63;;;5.10;;
67063;SDS011;58476;48.072;11.970;2023-03-01T04:26:51;8.90;;;5.20;;
67063;SDS011;58476;48.072;11.970;2023-03-01T04:29:16;7.60;;;5.07;;
67063;SDS011;58476;48.072;11.970;2023-03-01T04:31:42;8.57;;;5.07;;
67063;SDS011;58476;48.072;11.970;2023-03-01T04:34:07;6.82;;;5.03;;
67063;SDS011;58476;48.072;11.970;2023-03-01T04:36:32;6.57;;;4.82;;
67063;SDS011;58476;48.072;11.970;2023-03-01T04:38:58;6.28;;;4.60;;
67063;SDS011;58476;48.072;11.970;2023-03-01T04:41:24;7.63;;;4.85;;
67063;SDS011;58476;48.072;11.970;2023-03-01T04:43:50;8.77;;;5.30;;
67063;SDS011;58476;48.072;11.970;2023-03-01T04:46:16;6.07;;;4.53;;
67063;SDS011;58476;48.072;11.970;2023-03-01T04:48:44;7.55;;;4.90;;
67063;SDS011;58476;48.072;11.970;2023-03-01T04:51:10;6.63;;;4.97;;
67063;SDS011;58476;48.072;11.970;2023-03-01T04:53:35;8.10;;;5.18;;
67063;SDS011;58476;48.072;11.970;2023-03-01T04:56:01;7.53;;;5.15;;
67063;SDS011;58476;48.072;11.970;2023-03-01T04:58:26;7.25;;;4.75;;
67063;SDS011;58476;48.072;11.970;2023-03-01T05:00:52;7.60;;;4.80;;
67063;SDS011;58476;48.072;11.970;2023-03-01T05:03:18;7.82;;;4.95;;
67063;SDS011;58476;48.072;11.970;2023-03-01T05:05:44;7.78;;;5.22;;
67063;SDS011;58476;48.072;11.970;2023-03-01T05:08:11;7.40;;;4.80;;
67063;SDS011;58476;48.072;11.970;2023-03-01T05:10:37;8.40;;;5.18;;
67063;SDS011;58476;48.072;11.970;2023-03-01T05:13:03;9.68;;;5.13;;
67063;SDS011;58476;48.072;11.970;2023-03-01T05:15:29;16.77;;;4.93;;
67063;SDS011;58476;48.072;11.970;2023-03-01T05:17:56;13.70;;;5.32;;
67063;SDS011;58476;48.072;11.970;2023-03-01T05:20:23;19.58;;;6.05;;
67063;SDS011;58476;48.072;11.970;2023-03-01T05:22:48;11.60;;;5.07;;
67063;SDS011;58476;48.072;11.970;2023-03-01T05:25:15;26.05;;;5.20;;
67063;SDS011;58476;48.072;11.970;2023-03-01T05:27:40;26.88;;;5.78;;
67063;SDS011;58476;48.072;11.970;2023-03-01T05:30:06;14.88;;;6.38;;
67063;SDS011;58476;48.072;11.970;2023-03-01T05:32:32;20.38;;;5.47;;
67063;SDS011;58476;48.072;11.970;2023-03-01T05:34:57;16.65;;;5.50;;
67063;SDS011;58476;48.072;11.970;2023-03-01T05:37:22;19.92;;;6.68;;
67063;SDS011;58476;48.072;11.970;2023-03-01T05:39:48;13.25;;;5.97;;
67063;SDS011;58476;48.072;11.970;2023-03-01T05:42:13;20.15;;;5.30;;
67063;SDS011;58476;48.072;11.970;2023-03-01T05:44:38;12.65;;;5.07;;
67063;SDS011;58476;48.072;11.970;2023-03-01T05:47:04;14.52;;;5.20;;
67063;SDS011;58476;48.072;11.970;2023-03-01T05:49:29;12.82;;;5.22;;
67063;SDS011;58476;48.072;11.970;2023-03-01T05:51:56;14.57;;;4.97;;
67063;SDS011;58476;48.072;11.970;2023-03-01T05:54:22;14.02;;;4.70;;
67063;SDS011;58476;48.072;11.970;2023-03-01T05:56:47;11.80;;;5.10;;
67063;SDS011;58476;48.072;11.970;2023-03-01T05:59:13;20.88;;;5.53;;
67063;SDS011;58476;48.072;11.970;2023-03-01T06:01:38;11.25;;;5.28;;
67063;SDS011;58476;48.072;11.970;2023-03-01T06:04:04;12.07;;;5.18;;
67063;SDS011;58476;48.072;11.970;2023-03-01T06:06:32;17.80;;;4.75;;
67063;SDS011;58476;48.072;11.970;2023-03-01T06:08:59;18.58;;;5.15;;
67063;SDS011;58476;48.072;11.970;2023-03-01T06:11:24;19.70;;;5.40;;
67063;SDS011;58476;48.072;11.970;2023-03-01T06:13:49;47.70;;;10.38;;
67063;SDS011;58476;48.072;11.970;2023-03-01T06:16:15;21.25;;;6.13;;
67063;SDS011;58476;48.072;11.970;2023-03-01T06:18:40;19.23;;;6.85;;
67063;SDS011;58476;48.072;11.970;2023-03-01T06:21:07;18.98;;;6.90;;
67063;SDS011;58476;48.072;11.970;2023-03-01T06:23:33;20.20;;;6.35;;
67063;SDS011;58476;48.072;11.970;2023-03-01T06:26:00;23.92;;;7.05;;
67063;SDS011;58476;48.072;11.970;2023-03-01T06:28:29;12.65;;;6.22;;
67063;SDS011;58476;48.072;11.970;2023-03-01T06:30:55;24.83;;;7.53;;
67063;SDS011;58476;48.072;11.970;2023-03-01T06:33:20;16.38;;;6.28;;
67063;SDS011;58476;48.072;11.970;2023-03-01T06:35:46;15.15;;;6.40;;
67063;SDS011;58476;48.072;11.970;2023-03-01T06:38:12;17.67;;;7.75;;
67063;SDS011;58476;48.072;11.970;2023-03-01T06:40:37;18.63;;;7.05;;
67063;SDS011;58476;48.072;11.970;2023-03-01T06:43:02;16.05;;;5.90;;
67063;SDS011;58476;48.072;11.970;2023-03-01T06:45:28;17.00;;;6.40;;
67063;SDS011;58476;48.072;11.970;2023-03-01T06:48:00;14.13;;;6.38;;
67063;SDS011;58476;48.072;11.970;2023-03-01T06:50:26;21.75;;;6.53;;
67063;SDS011;58476;48.072;11.970;2023-03-01T06:52:55;13.73;;;6.35;;
67063;SDS011;58476;48.072;11.970;2023-03-01T06:55:20;19.80;;;6.97;;
67063;SDS011;58476;48.072;11.970;2023-03-01T06:57:46;16.75;;;6.18;;
67063;SDS011;58476;48.072;11.970;2023-03-01T07:00:11;18.83;;;6.35;;
67063;SDS011;58476;48.072;11.970;2023-03-01T07:02:37;14.75;;;6.28;;
67063;SDS011;58476;48.072;11.970;2023-03-01T07:05:02;14.63;;;6.35;;
67063;SDS011;58476;48.072;11.970;2023-03-01T07:07:28;15.48;;;6.15;;
67063;SDS011;58476;48.072;11.970;2023-03-01T07:09:53;14.15;;;6.13;;
67063;SDS011;58476;48.072;11.970;2023-03-01T07:12:19;13.90;;;6.15;;
67063;SDS011;58476;48.072;11.970;2023-03-01T07:14:44;12.18;;;6.05;;
67063;SDS011;58476;48.072;11.970;2023-03-01T07:17:09;18.17;;;6.53;;
67063;SDS011;58476;48.072;11.970;2023-03-01T07:19:35;14.93;;;6.80;;
67063;SDS011;58476;48.072;11.970;2023-03-01T07:22:00;12.73;;;6.30;;
67063;SDS011;58476;48.072;11.970;2023-03-01T07:24:25;15.20;;;6.10;;
67063;SDS011;58476;48.072;11.970;2023-03-01T07:26:51;12.65;;;6.07;;
67063;SDS011;58476;48.072;11.970;2023-03-01T07:29:17;12.73;;;6.18;;
67063;SDS011;58476;48.072;11.970;2023-03-01T07:31:43;11.77;;;5.82;;
67063;SDS011;58476;48.072;11.970;2023-03-01T07:34:08;14.77;;;6.20;;
67063;SDS011;58476;48.072;11.970;2023-03-01T07:36:33;11.50;;;5.78;;
67063;SDS011;58476;48.072;11.970;2023-03-01T07:38:59;15.15;;;6.63;;
67063;SDS011;58476;48.072;11.970;2023-03-01T07:41:24;11.63;;;5.70;;
67063;SDS011;58476;48.072;11.970;2023-03-01T07:43:50;10.23;;;6.05;;
67063;SDS011;58476;48.072;11.970;2023-03-01T07:46:15;11.25;;;5.93;;
67063;SDS011;58476;48.072;11.970;2023-03-01T07:48:40;9.98;;;5.57;;
67063;SDS011;58476;48.072;11.970;2023-03-01T07:51:06;12.88;;;5.45;;
67063;SDS011;58476;48.072;11.970;2023-03-01T07:53:32;14.48;;;6.90;;
67063;SDS011;58476;48.072;11.970;2023-03-01T07:58:30;16.92;;;7.20;;
67063;SDS011;58476;48.072;11.970;2023-03-01T08:00:57;10.27;;;7.20;;
67063;SDS011;58476;48.072;11.970;2023-03-01T08:03:26;14.68;;;8.00;;
67063;SDS011;58476;48.072;11.970;2023-03-01T08:05:51;12.18;;;7.40;;
67063;SDS011;58476;48.072;11.970;2023-03-01T08:08:17;13.18;;;8.63;;
67063;SDS011;58476;48.072;11.970;2023-03-01T08:10:42;15.68;;;7.70;;
67063;SDS011;58476;48.072;11.970;2023-03-01T08:13:07;13.45;;;8.07;;
67063;SDS011;58476;48.072;11.970;2023-03-01T08:15:33;13.30;;;7.88;;
67063;SDS011;58476;48.072;11.970;2023-03-01T08:17:58;12.25;;;7.75;;
67063;SDS011;58476;48.072;11.970;2023-03-01T08:20:23;12.30;;;8.18;;
67063;SDS011;58476;48.072;11.970;2023-03-01T08:22:49;11.57;;;7.70;;
67063;SDS011;58476;48.072;11.970;2023-03-01T08:25:14;17.60;;;8.20;;
67063;SDS011;58476;48.072;11.970;2023-03-01T08:27:39;13.07;;;7.53;;
67063;SDS011;58476;48.072;11.970;2023-03-01T08:30:05;14.20;;;8.25;;
67063;SDS011;58476;48.072;11.970;2023-03-01T08:32:34;11.90;;;7.90;;
67063;SDS011;58476;48.072;11.970;2023-03-01T08:35:01;11.32;;;7.47;;
67063;SDS011;58476;48.072;11.970;2023-03-01T08:37:26;10.68;;;7.43;;
67063;SDS011;58476;48.072;11.970;2023-03-01T08:39:51;11.93;;;7.60;;
67063;SDS011;58476;48.072;11.970;2023-03-01T08:42:17;11.90;;;7.53;;
67063;SDS011;58476;48.072;11.970;2023-03-01T08:44:42;17.13;;;7.97;;
67063;SDS011;58476;48.072;11.970;2023-03-01T08:47:07;13.65;;;7.78;;
67063;SDS011;58476;48.072;11.970;2023-03-01T08:49:33;10.82;;;7.65;;
67063;SDS011;58476;48.072;11.970;2023-03-01T08:51:58;15.07;;;7.32;;
67063;SDS011;58476;48.072;11.970;2023-03-01T08:54:23;15.13;;;8.23;;
67063;SDS011;58476;48.072;11.970;2023-03-01T08:56:49;11.45;;;7.13;;
67063;SDS011;58476;48.072;11.970;2023-03-01T08:59:15;15.60;;;7.30;;
67063;SDS011;58476;48.072;11.970;2023-03-01T09:01:41;19.85;;;7.43;;
67063;SDS011;58476;48.072;11.970;2023-03-01T09:04:06;11.15;;;7.70;;
67063;SDS011;58476;48.072;11.970;2023-03-01T09:06:32;14.07;;;8.23;;
67063;SDS011;58476;48.072;11.970;2023-03-01T09:08:58;13.75;;;7.68;;
67063;SDS011;58476;48.072;11.970;2023-03-01T09:11:24;12.40;;;7.80;;
67063;SDS011;58476;48.072;11.970;2023-03-01T09:13:49;12.43;;;7.38;;
67063;SDS011;58476;48.072;11.970;2023-03-01T09:16:16;10.40;;;6.70;;
67063;SDS011;58476;48.072;11.970;2023-03-01T09:18:43;14.88;;;7.05;;
67063;SDS011;58476;48.072;11.970;2023-03-01T09:23:36;16.73;;;8.18;;
67063;SDS011;58476;48.072;11.970;2023-03-01T09:26:03;13.60;;;7.47;;
67063;SDS011;58476;48.072;11.970;2023-03-01T09:28:29;14.25;;;7.70;;
67063;SDS011;58476;48.072;11.970;2023-03-01T09:30:57;14.50;;;7.65;;
67063;SDS011;58476;48.072;11.970;2023-03-01T09:33:23;10.98;;;7.32;;
67063;SDS011;58476;48.072;11.970;2023-03-01T09:35:49;15.25;;;7.55;;
67063;SDS011;58476;48.072;11.970;2023-03-01T09:38:14;13.55;;;7.47;;
67063;SDS011;58476;48.072;11.970;2023-03-01T09:40:43;14.15;;;7.68;;
67063;SDS011;58476;48.072;11.970;2023-03-01T09:43:13;14.05;;;7.10;;
67063;SDS011;58476;48.072;11.970;2023-03-01T09:45:59;11.32;;;7.28;;
67063;SDS011;58476;48.072;11.970;2023-03-01T09:48:31;14.57;;;7.45;;
67063;SDS011;58476;48.072;11.970;2023-03-01T09:51:02;11.07;;;6.93;;
67063;SDS011;58476;48.072;11.970;2023-03-01T09:53:33;12.38;;;7.53;;
67063;SDS011;58476;48.072;11.970;2023-03-01T09:56:04;11.48;;;7.22;;
67063;SDS011;58476;48.072;11.970;2023-03-01T10:01:05;13.63;;;7.45;;
67063;SDS011;58476;48.072;11.970;2023-03-01T10:03:54;14.02;;;7.80;;
67063;SDS011;58476;48.072;11.970;2023-03-01T10:06:30;15.27;;;8.18;;
67063;SDS011;58476;48.072;11.970;2023-03-01T10:08:57;13.48;;;8.05;;
67063;SDS011;58476;48.072;11.970;2023-03-01T10:11:28;12.90;;;7.82;;
67063;SDS011;58476;48.072;11.970;2023-03-01T10:14:21;11.45;;;7.50;;
67063;SDS011;58476;48.072;11.970;2023-03-01T10:16:59;12.80;;;7.40;;
67063;SDS011;58476;48.072;11.970;2023-03-01T10:22:13;11.43;;;7.10;;
67063;SDS011;58476;48.072;11.970;2023-03-01T10:24:41;15.60;;;8.75;;
67063;SDS011;58476;48.072;11.970;2023-03-01T10:27:51;13.27;;;7.90;;
67063;SDS011;58476;48.072;11.970;2023-03-01T10:33:01;11.63;;;7.63;;
67063;SDS011;58476;48.072;11.970;2023-03-01T10:35:29;15.65;;;8.25;;
67063;SDS011;58476;48.072;11.970;2023-03-01T10:37:58;12.75;;;7.57;;
67063;SDS011;58476;48.072;11.970;2023-03-01T10:40:24;16.77;;;7.55;;
67063;SDS011;58476;48.072;11.970;2023-03-01T10:42:49;12.25;;;8.15;;
67063;SDS011;58476;48.072;11.970;2023-03-01T10:50:47;13.73;;;7.22;;
67063;SDS011;58476;48.072;11.970;2023-03-01T10:55:59;12.38;;;7.50;;
67063;SDS011;58476;48.072;11.970;2023-03-01T10:58:33;10.05;;;7.45;;
67063;SDS011;58476;48.072;11.970;2023-03-01T11:01:06;11.23;;;8.07;;
67063;SDS011;58476;48.072;11.970;2023-03-01T11:03:41;13.18;;;8.25;;
67063;SDS011;58476;48.072;11.970;2023-03-01T11:08:40;12.10;;;7.63;;
67063;SDS011;58476;48.072;11.970;2023-03-01T11:14:06;11.68;;;7.93;;
67063;SDS011;58476;48.072;11.970;2023-03-01T11:16:44;10.98;;;7.03;;
67063;SDS011;58476;48.072;11.970;2023-03-01T11:21:40;10.68;;;7.40;;
67063;SDS011;58476;48.072;11.970;2023-03-01T11:24:12;11.10;;;7.30;;
67063;SDS011;58476;48.072;11.970;2023-03-01T11:26:44;11.85;;;7.20;;
67063;SDS011;58476;48.072;11.970;2023-03-01T11:29:37;14.00;;;8.27;;
67063;SDS011;58476;48.072;11.970;2023-03-01T11:32:05;14.48;;;8.90;;
67063;SDS011;58476;48.072;11.970;2023-03-01T11:34:36;15.90;;;10.25;;
67063;SDS011;58476;48.072;11.970;2023-03-01T11:37:11;14.38;;;9.70;;
67063;SDS011;58476;48.072;11.970;2023-03-01T11:39:51;15.68;;;10.43;;
67063;SDS011;58476;48.072;11.970;2023-03-01T11:45:27;15.32;;;9.23;;
67063;SDS011;58476;48.072;11.970;2023-03-01T11:48:25;14.38;;;9.35;;
67063;SDS011;58476;48.072;11.970;2023-03-01T11:51:20;19.23;;;9.85;;
67063;SDS011;58476;48.072;11.970;2023-03-01T11:56:29;22.75;;;10.82;;
67063;SDS011;58476;48.072;11.970;2023-03-01T11:59:15;22.05;;;11.40;;
67063;SDS011;58476;48.072;11.970;2023-03-01T12:04:54;15.98;;;9.43;;
67063;SDS011;58476;48.072;11.970;2023-03-01T12:17:59;16.65;;;9.88;;
67063;SDS011;58476;48.072;11.970;2023-03-01T12:23:15;14.85;;;9.80;;
67063;SDS011;58476;48.072;11.970;2023-03-01T12:36:44;13.70;;;9.55;;
67063;SDS011;58476;48.072;11.970;2023-03-01T12:50:26;16.02;;;9.32;;
67063;SDS011;58476;48.072;11.970;2023-03-01T12:53:02;14.60;;;9.27;;
67063;SDS011;58476;48.072;11.970;2023-03-01T12:55:41;12.77;;;8.98;;
67063;SDS011;58476;48.072;11.970;2023-03-01T13:01:00;14.60;;;9.05;;
67063;SDS011;58476;48.072;11.970;2023-03-01T13:06:39;15.27;;;9.82;;
67063;SDS011;58476;48.072;11.970;2023-03-01T13:11:43;14.65;;;9.60;;
67063;SDS011;58476;48.072;11.970;2023-03-01T13:16:46;17.65;;;9.80;;
67063;SDS011;58476;48.072;11.970;2023-03-01T13:19:13;16.90;;;10.02;;
67063;SDS011;58476;48.072;11.970;2023-03-01T13:21:41;21.80;;;9.65;;
67063;SDS011;58476;48.072;11.970;2023-03-01T13:29:48;18.55;;;9.90;;
67063;SDS011;58476;48.072;11.970;2023-03-01T13:34:51;14.90;;;8.90;;
67063;SDS011;58476;48.072;11.970;2023-03-01T13:37:23;17.40;;;9.90;;
67063;SDS011;58476;48.072;11.970;2023-03-01T13:39:53;17.77;;;9.27;;
67063;SDS011;58476;48.072;11.970;2023-03-01T13:42:29;15.02;;;9.15;;
67063;SDS011;58476;48.072;11.970;2023-03-01T13:44:57;15.55;;;9.13;;
67063;SDS011;58476;48.072;11.970;2023-03-01T13:47:23;17.10;;;9.75;;
67063;SDS011;58476;48.072;11.970;2023-03-01T13:49:51;14.02;;;8.73;;
67063;SDS011;58476;48.072;11.970;2023-03-01T13:55:06;17.58;;;9.02;;
67063;SDS011;58476;48.072;11.970;2023-03-01T13:58:00;14.00;;;8.02;;
67063;SDS011;58476;48.072;11.970;2023-03-01T14:00:38;12.23;;;7.82;;
67063;SDS011;58476;48.072;11.970;2023-03-01T14:05:36;14.43;;;8.02;;
67063;SDS011;58476;48.072;11.970;2023-03-01T14:08:03;13.80;;;8.05;;
67063;SDS011;58476;48.072;11.970;2023-03-01T14:10:31;15.35;;;8.27;;
67063;SDS011;58476;48.072;11.970;2023-03-01T14:16:15;14.90;;;8.52;;
67063;SDS011;58476;48.072;11.970;2023-03-01T14:19:05;11.80;;;7.57;;
67063;SDS011;58476;48.072;11.970;2023-03-01T14:21:39;17.75;;;7.85;;
67063;SDS011;58476;48.072;11.970;2023-03-01T14:24:05;13.13;;;7.68;;
67063;SDS011;58476;48.072;11.970;2023-03-01T14:26:31;13.82;;;7.45;;
67063;SDS011;58476;48.072;11.970;2023-03-01T14:28:59;11.02;;;8.20;;
67063;SDS011;58476;48.072;11.970;2023-03-01T14:33:56;12.77;;;7.97;;
67063;SDS011;58476;48.072;11.970;2023-03-01T14:36:26;14.68;;;7.18;;
67063;SDS011;58476;48.072;11.970;2023-03-01T14:38:53;13.57;;;7.60;;
67063;SDS011;58476;48.072;11.970;2023-03-01T14:41:19;12.13;;;7.22;;
67063;SDS011;58476;48.072;11.970;2023-03-01T14:43:49;12.02;;;7.43;;
67063;SDS011;58476;48.072;11.970;2023-03-01T14:46:35;16.65;;;7.32;;
67063;SDS011;58476;48.072;11.970;2023-03-01T14:51:59;11.35;;;7.00;;
67063;SDS011;58476;48.072;11.970;2023-03-01T14:54:43;10.95;;;6.97;;
67063;SDS011;58476;48.072;11.970;2023-03-01T14:57:18;12.13;;;6.93;;
67063;SDS011;58476;48.072;11.970;2023-03-01T14:59:45;11.60;;;7.40;;
67063;SDS011;58476;48.072;11.970;2023-03-01T15:02:13;12.98;;;7.10;;
67063;SDS011;58476;48.072;11.970;2023-03-01T15:04:42;10.93;;;6.80;;
67063;SDS011;58476;48.072;11.970;2023-03-01T15:07:11;14.70;;;8.75;;
67063;SDS011;58476;48.072;11.970;2023-03-01T15:09:38;15.27;;;9.43;;
67063;SDS011;58476;48.072;11.970;2023-03-01T15:14:52;13.43;;;8.98;;
67063;SDS011;58476;48.072;11.970;2023-03-01T15:17:31;12.82;;;9.15;;
67063;SDS011;58476;48.072;11.970;2023-03-01T15:19:58;12.88;;;8.77;;
67063;SDS011;58476;48.072;11.970;2023-03-01T15:22:25;14.07;;;8.20;;
67063;SDS011;58476;48.072;11.970;2023-03-01T15:24:51;11.98;;;8.30;;
67063;SDS011;58476;48.072;11.970;2023-03-01T15:27:21;13.57;;;7.82;;
67063;SDS011;58476;48.072;11.970;2023-03-01T15:29:52;11.52;;;7.55;;
67063;SDS011;58476;48.072;11.970;2023-03-01T15:32:30;14.98;;;8.48;;
67063;SDS011;58476;48.072;11.970;2023-03-01T15:35:00;10.93;;;7.32;;
67063;SDS011;58476;48.072;11.970;2023-03-01T15:38:22;12.35;;;7.90;;
67063;SDS011;58476;48.072;11.970;2023-03-01T15:40:50;13.25;;;7.25;;
67063;SDS011;58476;48.072;11.970;2023-03-01T15:46:17;15.32;;;7.55;;
67063;SDS011;58476;48.072;11.970;2023-03-01T15:48:47;9.85;;;6.75;;
67063;SDS011;58476;48.072;11.970;2023-03-01T15:51:13;12.13;;;7.75;;
67063;SDS011;58476;48.072;11.970;2023-03-01T15:53:39;13.70;;;7.28;;
67063;SDS011;58476;48.072;11.970;2023-03-01T15:56:04;10.60;;;7.28;;
67063;SDS011;58476;48.072;11.970;2023-03-01T15:58:29;12.65;;;7.68;;
67063;SDS011;58476;48.072;11.970;2023-03-01T16:00:55;13.02;;;7.85;;
67063;SDS011;58476;48.072;11.970;2023-03-01T16:03:20;16.15;;;9.30;;
67063;SDS011;58476;48.072;11.970;2023-03-01T16:05:46;17.70;;;9.27;;
67063;SDS011;58476;48.072;11.970;2023-03-01T16:08:11;22.20;;;11.35;;
67063;SDS011;58476;48.072;11.970;2023-03-01T16:10:37;23.55;;;11.77;;
67063;SDS011;58476;48.072;11.970;2023-03-01T16:13:02;19.98;;;10.52;;
67063;SDS011;58476;48.072;11.970;2023-03-01T16:15:29;14.77;;;9.80;;
67063;SDS011;58476;48.072;11.970;2023-03-01T16:17:56;16.83;;;9.95;;
67063;SDS011;58476;48.072;11.970;2023-03-01T16:20:22;15.77;;;9.60;;
67063;SDS011;58476;48.072;11.970;2023-03-01T16:22:48;12.80;;;9.13;;
67063;SDS011;58476;48.072;11.970;2023-03-01T16:25:14;15.70;;;9.45;;
67063;SDS011;58476;48.072;11.970;2023-03-01T16:27:42;14.55;;;9.18;;
67063;SDS011;58476;48.072;11.970;2023-03-01T16:30:08;15.55;;;8.93;;
67063;SDS011;58476;48.072;11.970;2023-03-01T16:32:37;14.82;;;9.48;;
67063;SDS011;58476;48.072;11.970;2023-03-01T16:35:07;14.63;;;9.73;;
67063;SDS011;58476;48.072;11.970;2023-03-01T16:37:34;17.55;;;9.27;;
67063;SDS011;58476;48.072;11.970;2023-03-01T16:40:00;13.82;;;9.32;;